createdAt,value
2023-04-01T00:01:54.134Z,0.45
2023-04-01T00:04:21.779Z,0.30
2023-04-01T00:06:49.009Z,0.25
2023-04-01T00:09:16.264Z,0.34
2023-04-01T00:11:43.419Z,0.28
2023-04-01T00:14:10.544Z,0.28
2023-04-01T00:16:37.670Z,0.30
2023-04-01T00:19:04.722Z,0.12
2023-04-01T00:21:31.784Z,0.29
2023-04-01T00:23:58.912Z,0.19
2023-04-01T00:26:26.377Z,0.17
2023-04-01T00:28:55.325Z,0.12
2023-04-01T00:31:24.715Z,0.29
2023-04-01T00:33:55.571Z,0.34
2023-04-01T00:36:24.486Z,0.36
2023-04-01T00:38:52.954Z,0.32
2023-04-01T00:41:25.131Z,0.15
2023-04-01T00:43:53.346Z,0.36
2023-04-01T00:46:21.036Z,0.33
2023-04-01T00:48:55.422Z,0.30
2023-04-01T00:51:29.240Z,0.28
2023-04-01T00:53:59.558Z,0.29
2023-04-01T00:56:42.168Z,0.34
2023-04-01T00:59:15.713Z,0.27
2023-04-01T01:01:43.682Z,0.25
2023-04-01T01:04:29.675Z,0.10
2023-04-01T01:06:58.012Z,0.24
2023-04-01T01:09:27.039Z,0.25
2023-04-01T01:12:03.274Z,0.22
2023-04-01T01:14:51.803Z,0.24
2023-04-01T01:17:21.746Z,0.18
2023-04-01T01:19:52.134Z,0.20
2023-04-01T01:22:38.000Z,0.19
2023-04-01T01:25:21.101Z,0.20
2023-04-01T01:28:18.764Z,0.20
2023-04-01T01:31:01.612Z,0.14
2023-04-01T01:33:31.583Z,0.18
2023-04-01T01:36:03.201Z,0.15
2023-04-01T01:38:33.771Z,0.01
2023-04-01T01:41:05.291Z,-0.14
2023-04-01T01:43:43.399Z,0.01
2023-04-01T01:46:15.728Z,0.06
2023-04-01T01:48:44.934Z,0.12
2023-04-01T01:51:12.043Z,0.02
2023-04-01T01:53:39.046Z,0.10
2023-04-01T01:56:07.021Z,0.14
2023-04-01T01:58:46.536Z,0.07
2023-04-01T02:01:24.496Z,0.07
2023-04-01T02:03:54.576Z,0.10
2023-04-01T02:06:28.540Z,-0.04
2023-04-01T02:09:04.039Z,0.06
2023-04-01T02:11:35.765Z,0.22
2023-04-01T02:14:08.995Z,0.25
2023-04-01T02:17:05.504Z,0.28
2023-04-01T02:19:37.896Z,0.32
2023-04-01T02:22:10.243Z,0.31
2023-04-01T02:24:43.128Z,0.14
2023-04-01T02:27:13.852Z,0.32
2023-04-01T02:29:41.109Z,0.22
2023-04-01T02:32:10.944Z,0.05
2023-04-01T02:34:38.563Z,0.17
2023-04-01T02:37:05.810Z,0.04
2023-04-01T02:39:32.864Z,0.13
2023-04-01T02:42:00.157Z,0.10
2023-04-01T02:44:27.190Z,0.02
2023-04-01T02:46:54.340Z,0.05
2023-04-01T02:49:21.428Z,-0.04
2023-04-01T02:51:48.332Z,0.10
2023-04-01T02:54:15.455Z,0.10
2023-04-01T02:56:43.326Z,0.07
2023-04-01T02:59:10.377Z,0.09
2023-04-01T03:01:37.435Z,0.08
2023-04-01T03:04:04.979Z,-0.02
2023-04-01T03:06:32.096Z,-0.17
2023-04-01T03:08:59.154Z,0.07
2023-04-01T03:11:27.358Z,0.08
2023-04-01T03:13:54.386Z,0.04
2023-04-01T03:16:21.397Z,0.08
2023-04-01T03:18:51.704Z,0.10
2023-04-01T03:21:22.662Z,0.15
2023-04-01T03:23:51.183Z,-0.06
2023-04-01T03:26:19.221Z,0.16
2023-04-01T03:28:46.320Z,0.11
2023-04-01T03:31:13.506Z,0.13
2023-04-01T03:33:47.657Z,0.17
2023-04-01T03:36:15.067Z,0.24
2023-04-01T03:38:42.599Z,-0.27
2023-04-01T03:41:14.507Z,0.31
2023-04-01T03:43:42.389Z,0.35
2023-04-01T03:46:09.628Z,0.43
2023-04-01T03:48:36.776Z,0.28
2023-04-01T03:51:08.687Z,0.49
2023-04-01T03:53:37.730Z,0.35
2023-04-01T03:56:07.730Z,0.45
2023-04-01T03:58:37.603Z,0.19
2023-04-01T04:01:19.310Z,0.38
2023-04-01T04:03:47.576Z,0.35
2023-04-01T04:06:15.662Z,0.27
2023-04-01T04:08:43.560Z,0.14
2023-04-01T04:11:10.731Z,0.31
2023-04-01T04:13:41.455Z,0.29
2023-04-01T04:16:09.756Z,0.32
2023-04-01T04:18:40.312Z,0.28
2023-04-01T04:21:07.872Z,0.28
2023-04-01T04:23:34.906Z,0.28
2023-04-01T04:26:05.380Z,0.33
2023-04-01T04:28:33.212Z,0.28
2023-04-01T04:31:00.947Z,0.36
2023-04-01T04:33:29.853Z,0.35
2023-04-01T04:35:58.468Z,0.34
2023-04-01T04:38:26.544Z,0.22
2023-04-01T04:40:55.602Z,0.38
2023-04-01T04:43:24.085Z,0.35
2023-04-01T04:45:52.572Z,0.33
2023-04-01T04:48:20.114Z,0.19
2023-04-01T04:50:49.770Z,0.19
2023-04-01T04:53:18.717Z,0.48
2023-04-01T04:55:49.991Z,0.47
2023-04-01T04:58:34.941Z,0.23
2023-04-01T05:01:14.946Z,0.42
2023-04-01T05:03:43.093Z,0.43
2023-04-01T05:06:13.022Z,0.32
2023-04-01T05:08:41.509Z,0.57
2023-04-01T05:11:13.859Z,0.63
2023-04-01T05:13:43.624Z,0.54
2023-04-01T05:16:12.804Z,0.37
2023-04-01T05:18:40.384Z,0.48
2023-04-01T05:21:09.695Z,0.68
2023-04-01T05:23:37.365Z,0.50
2023-04-01T05:26:09.994Z,0.61
2023-04-01T05:28:37.244Z,0.73
2023-04-01T05:31:06.040Z,0.86
2023-04-01T05:33:38.864Z,0.77
2023-04-01T05:36:09.989Z,0.94
2023-04-01T05:38:37.038Z,0.80
2023-04-01T05:41:05.675Z,0.85
2023-04-01T05:43:37.795Z,0.87
2023-04-01T05:46:25.508Z,0.91
2023-04-01T05:49:06.814Z,0.84
2023-04-01T05:51:34.111Z,1.00
2023-04-01T05:54:01.146Z,0.96
2023-04-01T05:56:28.358Z,1.11
2023-04-01T05:58:56.229Z,1.23
2023-04-01T06:01:27.256Z,1.16
2023-04-01T06:03:54.668Z,1.07
2023-04-01T06:06:27.826Z,1.16
2023-04-01T06:09:12.246Z,1.14
2023-04-01T06:12:08.731Z,1.30
2023-04-01T06:15:16.572Z,1.25
2023-04-01T06:17:49.827Z,1.29
2023-04-01T06:20:41.233Z,1.30
2023-04-01T06:23:16.998Z,1.24
2023-04-01T06:26:02.883Z,1.26
2023-04-01T06:28:54.858Z,1.35
2023-04-01T06:31:37.238Z,1.55
2023-04-01T06:34:32.356Z,1.76
2023-04-01T06:37:21.463Z,1.51
2023-04-01T06:40:13.446Z,1.66
2023-04-01T06:43:02.609Z,1.59
2023-04-01T06:46:10.512Z,1.46
2023-04-01T06:49:33.601Z,1.69
2023-04-01T06:52:28.040Z,1.77
2023-04-01T06:55:34.561Z,1.86
2023-04-01T06:58:30.543Z,1.91
2023-04-01T07:01:06.127Z,1.89
2023-04-01T07:03:40.280Z,1.92
2023-04-01T07:06:28.146Z,1.74
2023-04-01T07:09:04.303Z,1.95
2023-04-01T07:11:58.712Z,1.97
2023-04-01T07:14:57.542Z,2.05
2023-04-01T07:17:29.849Z,2.08
2023-04-01T07:20:12.265Z,2.03
2023-04-01T07:22:44.686Z,2.13
2023-04-01T07:25:35.184Z,2.38
2023-04-01T07:28:31.613Z,2.41
2023-04-01T07:31:31.629Z,2.63
2023-04-01T07:34:15.515Z,2.63
2023-04-01T07:36:48.325Z,2.80
2023-04-01T07:39:33.636Z,3.03
2023-04-01T07:42:58.411Z,3.17
2023-04-01T07:45:32.378Z,3.22
2023-04-01T07:48:21.412Z,3.50
2023-04-01T07:51:03.879Z,3.31
2023-04-01T07:53:51.441Z,3.28
2023-04-01T07:56:28.094Z,3.99
2023-04-01T07:58:54.995Z,4.40
2023-04-01T08:01:53.726Z,4.53
2023-04-01T08:04:32.577Z,4.78
2023-04-01T08:07:21.620Z,4.66
2023-04-01T08:10:26.502Z,5.13
2023-04-01T08:13:24.038Z,5.44
2023-04-01T08:16:33.286Z,5.36
2023-04-01T08:19:32.364Z,5.45
2023-04-01T08:22:08.448Z,5.57
2023-04-01T08:24:47.497Z,5.81
2023-04-01T08:27:30.032Z,6.02
2023-04-01T08:30:25.886Z,6.24
2023-04-01T08:33:30.594Z,6.58
2023-04-01T08:36:34.584Z,6.57
2023-04-01T08:39:28.983Z,7.24
2023-04-01T08:42:33.180Z,8.19
2023-04-01T08:45:29.837Z,9.37
2023-04-01T08:48:16.298Z,9.35
2023-04-01T08:51:03.150Z,9.32
2023-04-01T08:53:51.855Z,9.45
2023-04-01T08:56:54.182Z,10.07
2023-04-01T08:59:24.745Z,9.93
2023-04-01T09:02:01.066Z,9.82
2023-04-01T09:04:49.473Z,10.15
2023-04-01T09:07:22.397Z,10.43
2023-04-01T09:10:12.943Z,10.50
2023-04-01T09:12:52.400Z,11.19
2023-04-01T09:15:56.462Z,10.70
2023-04-01T09:19:03.680Z,10.58
2023-04-01T09:22:01.266Z,10.02
2023-04-01T09:24:40.548Z,10.42
2023-04-01T09:27:27.545Z,11.66
2023-04-01T09:30:07.211Z,12.70
2023-04-01T09:33:06.678Z,13.00
2023-04-01T09:35:50.175Z,13.02
2023-04-01T09:38:23.081Z,12.85
2023-04-01T09:41:08.854Z,13.03
2023-04-01T09:43:59.253Z,11.53
2023-04-01T09:46:35.962Z,11.75
2023-04-01T09:49:27.666Z,11.84
2023-04-01T09:52:46.466Z,11.90
2023-04-01T09:56:00.446Z,12.53
2023-04-01T09:58:52.849Z,12.38
2023-04-01T10:02:00.043Z,12.08
2023-04-01T10:04:48.968Z,12.09
2023-04-01T10:07:52.304Z,11.97
2023-04-01T10:11:00.591Z,11.83
2023-04-01T10:13:52.718Z,11.70
2023-04-01T10:16:41.093Z,12.00
2023-04-01T10:19:49.887Z,12.08
2023-04-01T10:22:36.449Z,11.77
2023-04-01T10:25:16.703Z,11.77
2023-04-01T10:28:12.189Z,12.08
2023-04-01T10:31:08.059Z,12.58
2023-04-01T10:33:59.369Z,13.04
2023-04-01T10:36:44.761Z,13.16
2023-04-01T10:39:24.076Z,13.56
2023-04-01T10:42:09.155Z,13.77
2023-04-01T10:45:26.099Z,14.39
2023-04-01T10:48:11.144Z,14.46
2023-04-01T10:50:56.504Z,13.83
2023-04-01T10:54:16.983Z,14.98
2023-04-01T10:57:21.501Z,15.51
2023-04-01T11:00:35.542Z,14.70
2023-04-01T11:04:13.096Z,14.45
2023-04-01T11:07:30.383Z,15.06
2023-04-01T11:10:25.452Z,14.65
2023-04-01T11:13:12.776Z,13.89
2023-04-01T11:16:00.556Z,14.15
2023-04-01T11:18:54.567Z,14.46
2023-04-01T11:22:00.671Z,15.62
2023-04-01T11:25:16.539Z,17.01
2023-04-01T11:28:21.371Z,17.38
2023-04-01T11:31:07.220Z,17.05
2023-04-01T11:33:40.002Z,15.79
2023-04-01T11:36:42.022Z,13.95
2023-04-01T11:39:38.260Z,12.85
2023-04-01T11:42:36.102Z,13.15
2023-04-01T11:45:47.796Z,13.13
2023-04-01T11:48:38.693Z,13.20
2023-04-01T11:51:32.070Z,13.50
2023-04-01T11:54:25.844Z,13.73
2023-04-01T11:56:56.055Z,13.12
2023-04-01T11:59:41.512Z,12.30
2023-04-01T12:02:19.327Z,11.61
2023-04-01T12:04:58.199Z,10.85
2023-04-01T12:07:54.529Z,10.25
2023-04-01T12:10:37.523Z,9.93
2023-04-01T12:13:46.304Z,10.05
2023-04-01T12:16:13.274Z,9.90
2023-04-01T12:18:49.232Z,9.79
2023-04-01T12:22:12.070Z,9.73
2023-04-01T12:25:06.731Z,9.70
2023-04-01T12:27:45.152Z,9.11
2023-04-01T12:30:33.169Z,8.94
2023-04-01T12:33:15.470Z,8.83
2023-04-01T12:36:25.777Z,8.72
2023-04-01T12:39:14.542Z,8.79
2023-04-01T12:41:53.950Z,8.64
2023-04-01T12:44:51.025Z,8.55
2023-04-01T12:47:37.020Z,8.51
2023-04-01T12:50:27.246Z,8.64
2023-04-01T12:53:12.971Z,8.64
2023-04-01T12:55:41.854Z,8.92
2023-04-01T12:58:30.318Z,9.21
2023-04-01T13:00:57.314Z,9.04
2023-04-01T13:04:06.834Z,9.19
2023-04-01T13:06:47.016Z,9.15
2023-04-01T13:09:41.599Z,9.03
2023-04-01T13:12:37.637Z,8.84
2023-04-01T13:15:07.505Z,8.62
2023-04-01T13:17:40.607Z,8.55
2023-04-01T13:20:10.868Z,8.38
2023-04-01T13:22:47.055Z,8.23
2023-04-01T13:25:23.123Z,8.21
2023-04-01T13:27:57.200Z,7.94
2023-04-01T13:30:40.716Z,8.09
2023-04-01T13:33:18.180Z,8.10
2023-04-01T13:36:22.379Z,8.03
2023-04-01T13:39:08.238Z,8.05
2023-04-01T13:41:50.879Z,7.91
2023-04-01T13:44:33.996Z,7.82
2023-04-01T13:47:25.699Z,7.78
2023-04-01T13:50:04.753Z,7.65
2023-04-01T13:53:17.209Z,7.62
2023-04-01T13:56:02.281Z,7.61
2023-04-01T13:58:53.449Z,7.54
2023-04-01T14:01:23.054Z,7.58
2023-04-01T14:03:53.191Z,7.44
2023-04-01T14:06:29.190Z,7.47
2023-04-01T14:09:18.253Z,7.46
2023-04-01T14:12:03.425Z,7.45
2023-04-01T14:14:54.911Z,7.49
2023-04-01T14:18:07.841Z,7.41
2023-04-01T14:20:41.884Z,7.45
2023-04-01T14:23:38.958Z,7.45
2023-04-01T14:26:31.452Z,7.38
2023-04-01T14:29:23.086Z,7.29
2023-04-01T14:31:50.284Z,7.22
2023-04-01T14:34:26.282Z,7.10
2023-04-01T14:37:16.746Z,7.18
2023-04-01T14:39:49.688Z,7.26
2023-04-01T14:42:50.349Z,7.13
2023-04-01T14:45:23.403Z,7.17
2023-04-01T14:48:18.320Z,7.10
2023-04-01T14:50:52.384Z,6.90
2023-04-01T14:53:30.194Z,7.10
2023-04-01T14:59:30.405Z,6.96
2023-04-01T15:02:31.658Z,6.92
2023-04-01T15:08:26.170Z,6.77
2023-04-01T15:10:56.296Z,6.70
2023-04-01T15:13:43.006Z,6.55
2023-04-01T15:16:29.134Z,6.47
2023-04-01T15:19:17.497Z,6.39
2023-04-01T15:22:21.552Z,6.24
2023-04-01T15:24:53.052Z,6.26
2023-04-01T15:27:43.542Z,6.17
2023-04-01T15:30:32.148Z,6.13
2023-04-01T15:33:26.151Z,6.08
2023-04-01T15:36:17.586Z,6.11
2023-04-01T15:38:54.154Z,6.19
2023-04-01T15:41:27.169Z,6.24
2023-04-01T15:43:54.199Z,6.11
2023-04-01T15:46:42.457Z,6.30
2023-04-01T15:49:29.715Z,6.39
2023-04-01T15:52:22.964Z,6.24
2023-04-01T15:55:32.796Z,6.38
2023-04-01T15:58:21.104Z,6.31
2023-04-01T16:01:23.480Z,6.27
2023-04-01T16:03:53.535Z,6.24
2023-04-01T16:06:47.577Z,6.28
2023-04-01T16:09:21.183Z,6.26
2023-04-01T16:11:55.818Z,6.26
2023-04-01T16:14:53.923Z,6.26
2023-04-01T16:17:23.767Z,6.25
2023-04-01T16:19:57.521Z,6.08
2023-04-01T16:22:32.717Z,6.13
2023-04-01T16:25:24.495Z,6.23
2023-04-01T16:28:31.836Z,6.19
2023-04-01T16:31:13.569Z,5.98
2023-04-01T16:33:59.921Z,6.09
2023-04-01T16:36:37.344Z,6.15
2023-04-01T16:39:19.515Z,6.13
2023-04-01T16:42:07.695Z,6.11
2023-04-01T16:45:03.355Z,6.03
2023-04-01T16:47:50.646Z,5.95
2023-04-01T16:50:23.030Z,5.90
2023-04-01T16:53:02.024Z,5.56
2023-04-01T16:55:50.788Z,5.77
2023-04-01T16:58:41.297Z,5.78
2023-04-01T17:01:11.152Z,5.84
2023-04-01T17:03:43.738Z,5.84
2023-04-01T17:06:35.044Z,5.73
2023-04-01T17:09:02.099Z,5.70
2023-04-01T17:11:45.394Z,5.44
2023-04-01T17:14:34.613Z,5.65
2023-04-01T17:17:19.355Z,5.66
2023-04-01T17:20:26.216Z,5.39
2023-04-01T17:23:06.825Z,5.57
2023-04-01T17:25:43.008Z,5.64
2023-04-01T17:28:35.742Z,5.47
2023-04-01T17:31:24.260Z,5.59
2023-04-01T17:34:09.683Z,5.61
2023-04-01T17:36:57.167Z,5.54
2023-04-01T17:39:56.172Z,5.58
2023-04-01T17:42:56.046Z,5.52
2023-04-01T17:45:27.874Z,5.49
2023-04-01T17:48:10.176Z,5.47
2023-04-01T17:50:37.085Z,5.52
2023-04-01T17:53:15.880Z,5.40
2023-04-01T17:55:46.681Z,5.23
2023-04-01T17:58:45.346Z,5.24
2023-04-01T18:01:52.994Z,5.46
2023-04-01T18:04:37.332Z,5.42
2023-04-01T18:07:12.849Z,5.39
2023-04-01T18:10:04.890Z,5.41
2023-04-01T18:13:01.392Z,5.32
2023-04-01T18:15:59.608Z,5.37
2023-04-01T18:18:35.747Z,5.37
2023-04-01T18:21:23.336Z,5.27
2023-04-01T18:24:02.722Z,5.41
2023-04-01T18:26:39.698Z,5.41
2023-04-01T18:29:24.093Z,5.35
2023-04-01T18:32:08.788Z,5.30
2023-04-01T18:34:45.763Z,5.16
2023-04-01T18:37:26.905Z,5.19
2023-04-01T18:40:13.053Z,5.31
2023-04-01T18:43:06.554Z,5.30
2023-04-01T18:45:39.020Z,5.33
2023-04-01T18:48:34.172Z,5.33
2023-04-01T18:51:11.758Z,5.31
2023-04-01T18:53:38.879Z,5.33
2023-04-01T18:56:26.762Z,5.36
2023-04-01T18:59:04.963Z,5.30
2023-04-01T19:01:52.238Z,5.36
2023-04-01T19:04:35.098Z,5.39
2023-04-01T19:07:35.141Z,5.31
2023-04-01T19:10:13.709Z,5.31
2023-04-01T19:12:48.803Z,5.43
2023-04-01T19:15:40.384Z,5.45
2023-04-01T19:18:29.081Z,5.42
2023-04-01T19:21:08.461Z,5.31
2023-04-01T19:24:00.354Z,5.35
2023-04-01T19:26:35.072Z,5.39
2023-04-01T19:29:11.293Z,5.40
2023-04-01T19:31:54.656Z,5.40
2023-04-01T19:34:53.022Z,5.37
2023-04-01T19:37:47.846Z,5.38
2023-04-01T19:40:20.916Z,5.44
2023-04-01T19:42:47.777Z,5.40
2023-04-01T19:45:20.912Z,5.41
2023-04-01T19:48:33.031Z,5.42
2023-04-01T19:51:25.803Z,5.45
2023-04-01T19:54:00.721Z,5.47
2023-04-01T19:56:56.322Z,5.45
2023-04-01T19:59:49.737Z,5.52
2023-04-01T20:02:40.998Z,5.35
2023-04-01T20:05:37.351Z,5.49
2023-04-01T20:08:22.515Z,5.47
2023-04-01T20:10:54.936Z,5.46
2023-04-01T20:13:48.316Z,5.44
2023-04-01T20:16:16.450Z,5.46
2023-04-01T20:18:53.881Z,5.48
2023-04-01T20:21:36.207Z,5.44
2023-04-01T20:24:23.120Z,5.37
2023-04-01T20:27:04.235Z,5.55
2023-04-01T20:29:54.310Z,5.52
2023-04-01T20:32:47.834Z,5.53
2023-04-01T20:35:33.077Z,5.46
2023-04-01T20:38:36.842Z,5.49
2023-04-01T20:41:25.020Z,5.47
2023-04-01T20:43:55.128Z,5.46
2023-04-01T20:46:32.222Z,5.36
2023-04-01T20:49:05.000Z,5.45
2023-04-01T20:51:36.809Z,5.46
2023-04-01T20:54:26.124Z,5.49
2023-04-01T20:57:05.979Z,5.25
2023-04-01T21:00:03.613Z,5.54
2023-04-01T21:02:45.021Z,5.56
2023-04-01T21:05:39.933Z,5.52
2023-04-01T21:08:34.653Z,5.53
2023-04-01T21:11:11.713Z,5.41
2023-04-01T21:14:10.108Z,5.53
2023-04-01T21:17:09.598Z,5.58
2023-04-01T21:20:01.429Z,5.61
2023-04-01T21:23:04.013Z,5.60
2023-04-01T21:25:42.318Z,5.52
2023-04-01T21:28:47.864Z,5.61
2023-04-01T21:31:26.832Z,5.60
2023-04-01T21:34:30.443Z,5.63
2023-04-01T21:37:18.815Z,5.67
2023-04-01T21:39:57.658Z,5.66
2023-04-01T21:42:31.056Z,5.67
2023-04-01T21:45:04.108Z,5.63
2023-04-01T21:47:57.382Z,5.03
2023-04-01T21:50:24.492Z,5.66
2023-04-01T21:53:12.884Z,5.64
2023-04-01T21:55:58.162Z,5.60
2023-04-01T21:58:43.281Z,5.65
2023-04-01T22:01:27.096Z,5.63
2023-04-01T22:04:00.726Z,5.59
2023-04-01T22:06:49.958Z,5.57
2023-04-01T22:09:26.755Z,5.41
2023-04-01T22:12:25.207Z,5.48
2023-04-01T22:15:13.576Z,5.51
2023-04-01T22:18:02.678Z,5.38
2023-04-01T22:20:46.193Z,5.54
2023-04-01T22:23:22.907Z,5.39
2023-04-01T22:25:52.913Z,5.62
2023-04-01T22:28:22.824Z,5.59
2023-04-01T22:30:53.386Z,5.46
2023-04-01T22:33:31.040Z,5.53
2023-04-01T22:36:14.515Z,5.60
2023-04-01T22:39:12.941Z,5.51
2023-04-01T22:41:46.267Z,5.54
2023-04-01T22:44:36.729Z,5.50
2023-04-01T22:47:10.783Z,5.47
2023-04-01T22:49:47.190Z,5.36
2023-04-01T22:52:24.874Z,5.30
2023-04-01T22:55:01.073Z,5.41
2023-04-01T22:57:31.608Z,5.48
2023-04-01T23:00:10.827Z,5.42
2023-04-01T23:02:41.330Z,5.32
2023-04-01T23:05:16.955Z,5.52
2023-04-01T23:08:01.662Z,5.43
2023-04-01T23:10:33.745Z,5.53
2023-04-01T23:13:03.325Z,5.38
2023-04-01T23:15:31.685Z,5.57
2023-04-01T23:18:16.333Z,5.47
2023-04-01T23:21:01.265Z,5.62
2023-04-01T23:23:33.832Z,5.53
2023-04-01T23:26:24.133Z,5.56
2023-04-01T23:28:54.416Z,5.64
2023-04-01T23:31:30.508Z,5.72
2023-04-01T23:34:00.947Z,5.65
2023-04-01T23:36:29.598Z,5.73
2023-04-01T23:38:57.054Z,5.62
2023-04-01T23:41:30.962Z,5.74
2023-04-01T23:44:09.378Z,5.53
2023-04-01T23:46:38.582Z,5.78
2023-04-01T23:49:13.246Z,5.80
2023-04-01T23:51:51.892Z,5.92
2023-04-01T23:54:25.080Z,5.88
2023-04-01T23:56:57.485Z,5.85
2023-04-01T23:59:28.614Z,5.63
